createdAt,value
2022-11-16T00:00:53.864Z,0.00
2022-11-16T00:01:53.829Z,0.00
2022-11-16T00:02:53.662Z,0.00
2022-11-16T00:03:53.645Z,0.00
2022-11-16T00:04:53.645Z,0.00
2022-11-16T00:05:53.670Z,0.00
2022-11-16T00:06:53.658Z,0.00
2022-11-16T00:07:53.822Z,0.00
2022-11-16T00:08:53.838Z,0.00
2022-11-16T00:09:53.892Z,0.00
2022-11-16T00:10:53.891Z,0.00
2022-11-16T00:11:53.890Z,0.00
2022-11-16T00:12:53.856Z,0.00
2022-11-16T00:13:53.651Z,0.00
2022-11-16T00:14:53.659Z,0.00
2022-11-16T00:15:53.668Z,0.00
2022-11-16T00:16:53.555Z,0.00
2022-11-16T00:17:53.542Z,0.00
2022-11-16T00:18:53.608Z,0.00
2022-11-16T00:19:53.530Z,0.00
2022-11-16T00:20:53.699Z,0.00
2022-11-16T00:21:53.701Z,0.00
2022-11-16T00:22:54.962Z,0.00
2022-11-16T00:23:53.720Z,0.00
2022-11-16T00:24:53.720Z,0.00
2022-11-16T00:25:53.737Z,0.00
2022-11-16T00:26:53.739Z,0.00
2022-11-16T00:27:53.548Z,0.00
2022-11-16T00:28:53.749Z,0.00
2022-11-16T00:29:53.658Z,0.00
2022-11-16T00:30:53.560Z,0.00
2022-11-16T00:31:53.617Z,0.00
2022-11-16T00:32:53.781Z,0.00
2022-11-16T00:33:53.787Z,0.00
2022-11-16T00:34:55.070Z,0.00
2022-11-16T00:35:53.420Z,0.00
2022-11-16T00:36:53.426Z,0.00
2022-11-16T00:37:53.421Z,0.00
2022-11-16T00:38:53.417Z,0.00
2022-11-16T00:39:53.397Z,0.00
2022-11-16T00:40:53.388Z,0.00
2022-11-16T00:41:53.398Z,0.00
2022-11-16T00:42:53.425Z,0.00
2022-11-16T00:43:53.457Z,0.00
2022-11-16T00:44:53.478Z,0.00
2022-11-16T00:45:53.476Z,0.00
2022-11-16T00:46:53.397Z,0.00
2022-11-16T00:47:57.776Z,0.00
2022-11-16T00:48:53.499Z,0.00
2022-11-16T00:49:53.505Z,0.00
2022-11-16T00:50:53.349Z,0.00
2022-11-16T00:51:53.525Z,0.00
2022-11-16T00:52:53.345Z,0.00
2022-11-16T00:53:53.314Z,0.00
2022-11-16T00:54:53.325Z,0.00
2022-11-16T00:55:53.496Z,0.00
2022-11-16T00:56:53.355Z,0.00
2022-11-16T00:57:53.366Z,0.00
2022-11-16T00:58:53.344Z,0.00
2022-11-16T00:59:53.576Z,0.00
2022-11-16T01:00:53.638Z,0.00
2022-11-16T01:01:53.617Z,0.00
2022-11-16T01:02:53.373Z,0.00
2022-11-16T01:03:53.602Z,0.00
2022-11-16T01:04:53.373Z,0.00
2022-11-16T01:05:53.723Z,0.00
2022-11-16T01:06:53.759Z,0.00
2022-11-16T01:07:53.619Z,0.00
2022-11-16T01:08:53.757Z,0.00
2022-11-16T01:09:53.622Z,0.00
2022-11-16T01:10:53.272Z,0.00
2022-11-16T01:11:53.231Z,0.00
2022-11-16T01:12:53.795Z,0.00
2022-11-16T01:13:53.652Z,0.00
2022-11-16T01:14:53.835Z,0.00
2022-11-16T01:15:53.281Z,0.00
2022-11-16T01:16:53.468Z,0.00
2022-11-16T01:17:53.271Z,0.00
2022-11-16T01:18:53.684Z,0.00
2022-11-16T01:19:53.491Z,0.00
2022-11-16T01:20:53.109Z,0.00
2022-11-16T01:21:53.152Z,0.00
2022-11-16T01:22:53.109Z,0.00
2022-11-16T01:23:53.112Z,0.00
2022-11-16T01:24:53.152Z,0.00
2022-11-16T01:25:53.141Z,0.00
2022-11-16T01:26:53.129Z,0.00
2022-11-16T01:27:53.287Z,0.00
2022-11-16T01:28:53.288Z,0.00
2022-11-16T01:29:53.378Z,0.00
2022-11-16T01:30:53.409Z,0.00
2022-11-16T01:31:53.376Z,0.00
2022-11-16T01:32:53.170Z,0.00
2022-11-16T01:33:53.178Z,0.00
2022-11-16T01:34:53.007Z,0.00
2022-11-16T01:35:53.189Z,0.00
2022-11-16T01:36:53.037Z,0.00
2022-11-16T01:37:53.210Z,0.00
2022-11-16T01:38:53.418Z,0.00
2022-11-16T01:39:53.626Z,0.00
2022-11-16T01:40:53.636Z,0.00
2022-11-16T01:41:53.646Z,0.00
2022-11-16T01:42:53.077Z,0.00
2022-11-16T01:43:52.975Z,0.00
2022-11-16T01:44:53.385Z,0.00
2022-11-16T01:45:53.056Z,0.00
2022-11-16T01:46:53.267Z,0.00
2022-11-16T01:47:53.427Z,0.00
2022-11-16T01:48:53.102Z,0.00
2022-11-16T01:49:53.411Z,0.00
2022-11-16T01:50:53.817Z,0.00
2022-11-16T01:51:52.936Z,0.00
2022-11-16T01:52:53.104Z,0.00
2022-11-16T01:53:53.115Z,0.00
2022-11-16T01:54:53.025Z,0.00
2022-11-16T01:55:52.934Z,0.00
2022-11-16T01:56:52.935Z,0.00
2022-11-16T01:57:52.962Z,0.00
2022-11-16T01:58:52.965Z,0.00
2022-11-16T01:59:52.974Z,0.00
2022-11-16T02:00:53.008Z,0.00
2022-11-16T02:01:52.832Z,0.00
2022-11-16T02:04:18.977Z,0.00
2022-11-16T02:05:18.985Z,0.00
2022-11-16T02:06:19.006Z,0.00
2022-11-16T02:07:19.149Z,0.00
2022-11-16T02:08:19.116Z,0.00
2022-11-16T02:09:20.205Z,0.00
2022-11-16T02:10:19.126Z,0.00
2022-11-16T02:11:18.764Z,0.00
2022-11-16T02:12:19.239Z,0.00
2022-11-16T02:13:18.756Z,0.00
2022-11-16T02:14:18.706Z,0.00
2022-11-16T02:15:19.165Z,0.00
2022-11-16T02:16:18.704Z,0.00
2022-11-16T02:17:18.716Z,0.00
2022-11-16T02:18:18.733Z,0.00
2022-11-16T02:19:18.685Z,0.00
2022-11-16T02:20:18.898Z,0.00
2022-11-16T02:21:18.684Z,0.00
2022-11-16T02:22:19.103Z,0.00
2022-11-16T02:23:19.003Z,0.00
2022-11-16T02:24:18.912Z,0.00
2022-11-16T02:25:19.325Z,0.00
2022-11-16T02:26:18.752Z,0.00
2022-11-16T02:27:18.842Z,0.00
2022-11-16T02:28:18.656Z,0.00
2022-11-16T02:29:18.625Z,0.00
2022-11-16T02:30:19.083Z,0.00
2022-11-16T02:31:19.062Z,0.00
2022-11-16T02:32:19.073Z,0.00
2022-11-16T02:33:18.762Z,0.00
2022-11-16T02:34:18.572Z,0.00
2022-11-16T02:35:18.692Z,0.00
2022-11-16T02:36:18.587Z,0.00
2022-11-16T02:37:18.701Z,0.00
2022-11-16T02:38:18.700Z,0.00
2022-11-16T02:39:18.810Z,0.00
2022-11-16T02:40:18.609Z,0.00
2022-11-16T02:41:18.546Z,0.00
2022-11-16T02:42:18.530Z,0.00
2022-11-16T02:43:18.629Z,0.00
2022-11-16T02:44:18.751Z,0.00
2022-11-16T02:45:18.538Z,0.00
2022-11-16T02:46:18.547Z,0.00
2022-11-16T02:47:18.547Z,0.00
2022-11-16T02:48:18.868Z,0.00
2022-11-16T02:49:18.559Z,0.00
2022-11-16T02:50:18.468Z,0.00
2022-11-16T02:51:18.899Z,0.00
2022-11-16T02:52:18.486Z,0.00
2022-11-16T02:53:18.707Z,0.00
2022-11-16T02:54:18.919Z,0.00
2022-11-16T02:55:18.506Z,0.00
2022-11-16T02:56:19.026Z,0.00
2022-11-16T02:57:18.436Z,0.00
2022-11-16T02:58:18.444Z,0.00
2022-11-16T02:59:19.155Z,0.00
2022-11-16T03:00:18.546Z,0.00
2022-11-16T03:01:19.393Z,0.00
2022-11-16T03:02:18.387Z,0.00
2022-11-16T03:03:18.614Z,0.00
2022-11-16T03:04:18.395Z,0.00
2022-11-16T03:05:18.672Z,0.00
2022-11-16T03:06:19.615Z,0.00
2022-11-16T03:07:18.978Z,0.00
2022-11-16T03:08:19.004Z,0.00
2022-11-16T03:09:18.573Z,0.00
2022-11-16T03:10:18.864Z,0.00
2022-11-16T03:11:18.704Z,0.00
2022-11-16T03:12:18.324Z,0.00
2022-11-16T03:13:18.347Z,0.00
2022-11-16T03:14:18.326Z,0.00
2022-11-16T03:15:18.441Z,0.00
2022-11-16T03:16:18.333Z,0.00
2022-11-16T03:17:18.587Z,0.00
2022-11-16T03:18:18.364Z,0.00
2022-11-16T03:19:18.580Z,0.00
2022-11-16T03:20:18.264Z,0.00
2022-11-16T03:21:18.250Z,0.00
2022-11-16T03:22:18.362Z,0.00
2022-11-16T03:23:18.252Z,0.00
2022-11-16T03:24:18.501Z,0.00
2022-11-16T03:25:18.509Z,0.00
2022-11-16T03:26:18.218Z,0.00
2022-11-16T03:27:18.230Z,0.00
2022-11-16T03:28:18.612Z,0.00
2022-11-16T03:29:18.419Z,0.00
2022-11-16T03:30:23.172Z,0.00
2022-11-16T03:31:18.760Z,0.00
2022-11-16T03:32:18.182Z,0.00
2022-11-16T03:33:18.205Z,0.00
2022-11-16T03:34:18.181Z,0.00
2022-11-16T03:35:19.609Z,0.00
2022-11-16T03:36:18.171Z,0.00
2022-11-16T03:37:18.215Z,0.00
2022-11-16T03:38:18.190Z,0.00
2022-11-16T03:39:18.287Z,0.00
2022-11-16T03:40:18.281Z,0.00
2022-11-16T03:41:18.300Z,0.00
2022-11-16T03:42:18.109Z,0.00
2022-11-16T03:43:18.298Z,0.00
2022-11-16T03:44:18.257Z,0.00
2022-11-16T03:45:18.317Z,0.00
2022-11-16T03:46:18.109Z,0.00
2022-11-16T03:47:18.119Z,0.00
2022-11-16T03:48:18.057Z,0.00
2022-11-16T03:49:18.085Z,0.00
2022-11-16T03:50:18.475Z,0.00
2022-11-16T03:51:18.493Z,0.00
2022-11-16T03:52:18.147Z,0.00
2022-11-16T03:53:18.496Z,0.00
2022-11-16T03:54:18.526Z,0.00
2022-11-16T03:55:18.015Z,0.00
2022-11-16T03:56:18.007Z,0.00
2022-11-16T03:57:18.006Z,0.00
2022-11-16T03:58:17.995Z,0.00
2022-11-16T03:59:18.511Z,0.00
2022-11-16T04:00:18.004Z,0.00
2022-11-16T04:01:18.030Z,0.00
2022-11-16T04:02:18.146Z,0.00
2022-11-16T04:03:18.156Z,0.00
2022-11-16T04:04:17.975Z,0.00
2022-11-16T04:05:18.165Z,0.00
2022-11-16T04:06:17.973Z,0.00
2022-11-16T04:07:19.482Z,0.00
2022-11-16T04:08:18.402Z,0.00
2022-11-16T04:09:18.045Z,0.00
2022-11-16T04:10:18.405Z,0.00
2022-11-16T04:11:18.484Z,0.00
2022-11-16T04:12:18.624Z,0.00
2022-11-16T04:13:18.222Z,0.00
2022-11-16T04:14:17.890Z,0.00
2022-11-16T04:15:17.905Z,0.00
2022-11-16T04:16:17.892Z,0.00
2022-11-16T04:17:17.880Z,0.00
2022-11-16T04:18:18.662Z,0.00
2022-11-16T04:19:17.874Z,0.00
2022-11-16T04:20:17.876Z,0.00
2022-11-16T04:21:17.873Z,0.00
2022-11-16T04:22:17.873Z,0.00
2022-11-16T04:23:17.884Z,0.00
2022-11-16T04:24:17.889Z,0.00
2022-11-16T04:25:17.841Z,0.00
2022-11-16T04:26:17.905Z,0.00
2022-11-16T04:27:17.911Z,0.00
2022-11-16T04:28:17.913Z,0.00
2022-11-16T04:29:17.921Z,0.00
2022-11-16T04:30:17.803Z,0.00
2022-11-16T04:31:17.810Z,0.00
2022-11-16T04:33:44.048Z,0.00
2022-11-16T04:34:43.961Z,0.00
2022-11-16T04:35:44.040Z,0.00
2022-11-16T04:36:43.783Z,0.00
2022-11-16T04:37:43.763Z,0.00
2022-11-16T04:38:43.742Z,0.00
2022-11-16T04:39:43.790Z,0.00
2022-11-16T04:40:43.803Z,0.00
2022-11-16T04:41:43.880Z,0.00
2022-11-16T04:42:43.681Z,0.00
2022-11-16T04:43:43.819Z,0.00
2022-11-16T04:44:44.040Z,0.00
2022-11-16T04:45:44.053Z,0.00
2022-11-16T04:46:44.048Z,0.00
2022-11-16T04:47:43.849Z,0.00
2022-11-16T04:48:43.650Z,0.00
2022-11-16T04:49:43.694Z,0.00
2022-11-16T04:50:44.279Z,0.00
2022-11-16T04:51:43.610Z,0.00
2022-11-16T04:52:44.297Z,0.00
2022-11-16T04:53:43.891Z,0.00
2022-11-16T04:54:44.118Z,0.00
2022-11-16T04:55:43.678Z,0.00
2022-11-16T04:56:44.116Z,0.00
2022-11-16T04:57:44.330Z,0.00
2022-11-16T04:58:43.717Z,0.00
2022-11-16T04:59:43.597Z,0.00
2022-11-16T05:00:43.938Z,0.00
2022-11-16T05:01:44.237Z,0.00
2022-11-16T05:02:43.548Z,0.00
2022-11-16T05:03:43.555Z,0.00
2022-11-16T05:04:43.556Z,0.00
2022-11-16T05:05:43.567Z,0.00
2022-11-16T05:06:43.777Z,0.00
2022-11-16T05:07:43.639Z,0.00
2022-11-16T05:08:44.530Z,0.00
2022-11-16T05:09:43.499Z,0.00
2022-11-16T05:10:43.607Z,0.00
2022-11-16T05:11:43.489Z,0.00
2022-11-16T05:12:43.507Z,0.00
2022-11-16T05:13:43.508Z,0.00
2022-11-16T05:14:43.479Z,0.00
2022-11-16T05:15:43.535Z,0.00
2022-11-16T05:16:43.484Z,0.00
2022-11-16T05:17:43.456Z,0.00
2022-11-16T05:18:43.455Z,0.00
2022-11-16T05:19:43.465Z,0.00
2022-11-16T05:20:43.675Z,0.00
2022-11-16T05:21:43.474Z,0.00
2022-11-16T05:22:43.686Z,0.00
2022-11-16T05:23:43.704Z,0.00
2022-11-16T05:24:43.495Z,0.00
2022-11-16T05:25:43.703Z,0.00
2022-11-16T05:26:43.563Z,0.00
2022-11-16T05:27:43.722Z,0.00
2022-11-16T05:28:43.381Z,0.00
2022-11-16T05:29:43.543Z,0.00
2022-11-16T05:30:43.373Z,0.00
2022-11-16T05:31:43.743Z,0.00
2022-11-16T05:32:43.752Z,0.00
2022-11-16T05:33:43.342Z,0.00
2022-11-16T05:34:43.739Z,0.00
2022-11-16T05:35:43.980Z,0.00
2022-11-16T05:36:43.821Z,0.00
2022-11-16T05:37:43.993Z,0.00
2022-11-16T05:38:43.996Z,0.00
2022-11-16T05:39:44.014Z,0.00
2022-11-16T05:40:43.300Z,0.00
2022-11-16T05:41:43.814Z,0.00
2022-11-16T05:42:43.290Z,0.00
2022-11-16T05:43:43.269Z,0.00
2022-11-16T05:44:43.261Z,0.00
2022-11-16T05:45:43.428Z,0.00
2022-11-16T05:46:43.641Z,0.00
2022-11-16T05:47:43.280Z,0.00
2022-11-16T05:48:43.472Z,0.00
2022-11-16T05:49:43.870Z,0.00
2022-11-16T05:50:43.440Z,0.00
2022-11-16T05:51:44.087Z,0.00
2022-11-16T05:52:43.270Z,0.00
2022-11-16T05:53:43.279Z,0.00
2022-11-16T05:54:43.279Z,0.00
2022-11-16T05:55:43.605Z,0.00
2022-11-16T05:56:44.644Z,0.00
2022-11-16T05:57:43.170Z,0.00
2022-11-16T05:58:43.168Z,0.00
2022-11-16T05:59:43.170Z,0.00
2022-11-16T06:00:43.170Z,0.00
2022-11-16T06:01:43.149Z,0.00
2022-11-16T06:02:43.210Z,0.00
2022-11-16T06:03:43.154Z,0.00
2022-11-16T06:04:43.149Z,0.00
2022-11-16T06:05:43.159Z,0.00
2022-11-16T06:06:43.167Z,0.00
2022-11-16T06:07:43.177Z,0.00
2022-11-16T06:08:43.189Z,0.00
2022-11-16T06:09:43.198Z,0.00
2022-11-16T06:10:43.196Z,0.00
2022-11-16T06:11:43.208Z,0.00
2022-11-16T06:12:43.226Z,0.00
2022-11-16T06:13:43.253Z,0.00
2022-11-16T06:14:43.237Z,0.00
2022-11-16T06:17:09.247Z,0.00
2022-11-16T06:18:09.455Z,0.00
2022-11-16T06:19:09.467Z,0.00
2022-11-16T06:20:09.474Z,0.00
2022-11-16T06:21:09.475Z,0.00
2022-11-16T06:22:09.485Z,0.00
2022-11-16T06:23:09.497Z,0.00
2022-11-16T06:24:09.312Z,0.00
2022-11-16T06:25:09.295Z,0.00
2022-11-16T06:26:09.525Z,0.00
2022-11-16T06:27:08.954Z,0.00
2022-11-16T06:28:08.953Z,0.00
2022-11-16T06:29:09.122Z,0.00
2022-11-16T06:30:09.153Z,0.00
2022-11-16T06:31:09.134Z,0.00
2022-11-16T06:32:09.143Z,0.00
2022-11-16T06:33:08.943Z,0.00
2022-11-16T06:34:09.364Z,0.00
2022-11-16T06:35:08.984Z,0.00
2022-11-16T06:36:08.973Z,0.00
2022-11-16T06:37:08.973Z,0.00
2022-11-16T06:38:09.192Z,0.00
2022-11-16T06:39:09.196Z,0.00
2022-11-16T06:40:09.208Z,0.00
2022-11-16T06:41:09.413Z,0.00
2022-11-16T06:42:09.210Z,0.00
2022-11-16T06:43:09.042Z,0.00
2022-11-16T06:44:09.031Z,0.00
2022-11-16T06:45:09.043Z,0.00
2022-11-16T06:46:08.851Z,0.00
2022-11-16T06:47:08.861Z,0.00
2022-11-16T06:48:08.870Z,0.00
2022-11-16T06:49:08.861Z,0.00
2022-11-16T06:50:09.110Z,0.00
2022-11-16T06:51:08.860Z,0.00
2022-11-16T06:52:08.873Z,0.00
2022-11-16T06:53:08.871Z,0.00
2022-11-16T06:54:08.889Z,0.00
2022-11-16T06:55:08.756Z,0.00
2022-11-16T06:56:10.428Z,0.00
2022-11-16T06:57:08.900Z,0.00
2022-11-16T06:58:08.810Z,5.62
2022-11-16T06:59:08.729Z,5.62
2022-11-16T07:00:08.726Z,5.62
2022-11-16T07:01:08.939Z,5.62
2022-11-16T07:02:08.822Z,5.62
2022-11-16T07:03:08.747Z,5.62
2022-11-16T07:04:08.708Z,11.25
2022-11-16T07:05:08.761Z,11.25
2022-11-16T07:06:08.897Z,11.25
2022-11-16T07:07:09.020Z,11.25
2022-11-16T07:08:08.675Z,16.88
2022-11-16T07:09:08.997Z,16.88
2022-11-16T07:10:09.018Z,16.88
2022-11-16T07:11:09.006Z,16.88
2022-11-16T07:12:09.111Z,16.88
2022-11-16T07:13:09.016Z,16.88
2022-11-16T07:14:08.814Z,16.88
2022-11-16T07:15:08.635Z,16.88
2022-11-16T07:16:08.627Z,16.88
2022-11-16T07:17:09.778Z,22.50
2022-11-16T07:18:08.616Z,22.50
2022-11-16T07:19:08.608Z,22.50
2022-11-16T07:20:08.606Z,22.50
2022-11-16T07:21:08.623Z,28.12
2022-11-16T07:22:08.643Z,22.50
2022-11-16T07:23:13.860Z,22.50
2022-11-16T07:24:08.661Z,22.50
2022-11-16T07:25:08.675Z,22.50
2022-11-16T07:26:08.552Z,22.50
2022-11-16T07:27:08.707Z,28.12
2022-11-16T07:28:08.832Z,28.12
2022-11-16T07:29:08.531Z,28.12
2022-11-16T07:30:08.524Z,28.12
2022-11-16T07:31:08.517Z,33.75
2022-11-16T07:32:08.536Z,33.75
2022-11-16T07:33:08.773Z,33.75
2022-11-16T07:34:08.782Z,39.38
2022-11-16T07:35:08.493Z,39.38
2022-11-16T07:36:08.483Z,45.00
2022-11-16T07:37:08.822Z,45.00
2022-11-16T07:38:08.841Z,50.62
2022-11-16T07:39:08.863Z,56.25
2022-11-16T07:40:08.781Z,56.25
2022-11-16T07:41:08.480Z,56.25
2022-11-16T07:42:08.591Z,56.25
2022-11-16T07:43:08.431Z,61.88
2022-11-16T07:44:11.929Z,61.88
2022-11-16T07:45:08.621Z,61.88
2022-11-16T07:46:44.767Z,61.88
2022-11-16T07:47:08.700Z,61.88
2022-11-16T07:48:08.649Z,61.88
2022-11-16T07:49:11.547Z,67.50
2022-11-16T07:50:08.862Z,67.50
2022-11-16T07:51:08.859Z,67.50
2022-11-16T07:52:08.398Z,67.50
2022-11-16T07:53:08.506Z,67.50
2022-11-16T07:54:08.669Z,73.12
2022-11-16T07:55:09.099Z,73.12
2022-11-16T07:56:09.110Z,78.75
2022-11-16T07:57:09.150Z,78.75
2022-11-16T07:58:08.358Z,84.38
2022-11-16T07:59:09.127Z,84.38
2022-11-16T08:00:08.337Z,84.38
2022-11-16T08:01:09.129Z,84.38
2022-11-16T08:02:08.380Z,90.00
2022-11-16T08:04:19.808Z,95.62
2022-11-16T08:05:19.816Z,95.62
2022-11-16T08:06:19.518Z,90.00
2022-11-16T08:07:19.851Z,90.00
2022-11-16T08:08:19.867Z,84.38
2022-11-16T08:09:19.845Z,78.75
2022-11-16T08:10:19.869Z,78.75
2022-11-16T08:11:19.466Z,84.38
2022-11-16T08:12:19.476Z,90.00
2022-11-16T08:13:19.466Z,90.00
2022-11-16T08:14:19.468Z,90.00
2022-11-16T08:15:19.475Z,101.25
2022-11-16T08:16:19.485Z,106.88
2022-11-16T08:17:19.487Z,118.12
2022-11-16T08:18:19.420Z,118.12
2022-11-16T08:19:19.415Z,123.75
2022-11-16T08:20:19.406Z,129.38
2022-11-16T08:21:20.699Z,129.38
2022-11-16T08:22:19.424Z,118.12
2022-11-16T08:23:19.384Z,106.88
2022-11-16T08:24:19.465Z,106.88
2022-11-16T08:25:19.477Z,118.12
2022-11-16T08:26:19.493Z,118.12
2022-11-16T08:27:19.502Z,123.75
2022-11-16T08:28:19.503Z,118.12
2022-11-16T08:29:19.524Z,123.75
2022-11-16T08:30:19.353Z,135.00
2022-11-16T08:31:19.542Z,129.38
2022-11-16T08:32:19.365Z,123.75
2022-11-16T08:33:19.372Z,129.38
2022-11-16T08:34:19.302Z,123.75
2022-11-16T08:35:19.604Z,135.00
2022-11-16T08:36:19.407Z,146.25
2022-11-16T08:37:19.311Z,157.50
2022-11-16T08:38:19.410Z,163.12
2022-11-16T08:39:19.411Z,168.75
2022-11-16T08:40:19.441Z,163.12
2022-11-16T08:41:19.404Z,163.12
2022-11-16T08:42:19.491Z,168.75
2022-11-16T08:43:19.649Z,174.38
2022-11-16T08:44:19.668Z,185.62
2022-11-16T08:45:19.671Z,191.25
2022-11-16T08:46:19.660Z,196.88
2022-11-16T08:47:19.691Z,208.12
2022-11-16T08:48:19.779Z,191.25
2022-11-16T08:49:19.290Z,185.62
2022-11-16T08:50:19.270Z,180.00
2022-11-16T08:51:20.389Z,185.62
2022-11-16T08:52:19.324Z,208.12
2022-11-16T08:53:19.499Z,208.12
2022-11-16T08:54:19.509Z,202.50
2022-11-16T08:55:19.158Z,185.62
2022-11-16T08:56:19.139Z,185.62
2022-11-16T08:57:19.742Z,185.62
2022-11-16T08:58:19.338Z,191.25
2022-11-16T08:59:19.339Z,191.25
2022-11-16T09:00:19.128Z,191.25
2022-11-16T09:01:19.261Z,191.25
2022-11-16T09:02:19.128Z,196.88
2022-11-16T09:03:19.387Z,202.50
2022-11-16T09:04:19.380Z,202.50
2022-11-16T09:05:19.167Z,208.12
2022-11-16T09:06:19.176Z,208.12
2022-11-16T09:07:19.448Z,196.88
2022-11-16T09:08:19.976Z,196.88
2022-11-16T09:09:19.396Z,196.88
2022-11-16T09:10:19.667Z,191.25
2022-11-16T09:11:19.826Z,191.25
2022-11-16T09:12:19.036Z,191.25
2022-11-16T09:13:19.366Z,191.25
2022-11-16T09:14:19.027Z,191.25
2022-11-16T09:15:19.043Z,185.62
2022-11-16T09:16:19.038Z,185.62
2022-11-16T09:17:23.133Z,185.62
2022-11-16T09:18:19.257Z,185.62
2022-11-16T09:19:19.084Z,185.62
2022-11-16T09:20:19.086Z,185.62
2022-11-16T09:21:19.125Z,180.00
2022-11-16T09:22:19.075Z,174.38
2022-11-16T09:23:24.913Z,185.62
2022-11-16T09:24:19.319Z,208.12
2022-11-16T09:25:19.023Z,236.25
2022-11-16T09:26:19.353Z,241.88
2022-11-16T09:27:19.574Z,241.88
2022-11-16T09:28:19.321Z,236.25
2022-11-16T09:29:18.926Z,236.25
2022-11-16T09:30:19.143Z,230.62
2022-11-16T09:31:23.363Z,225.00
2022-11-16T09:32:19.812Z,219.38
2022-11-16T09:33:18.976Z,219.38
2022-11-16T09:34:19.563Z,225.00
2022-11-16T09:35:19.002Z,225.00
2022-11-16T09:36:19.215Z,225.00
2022-11-16T09:37:18.862Z,219.38
2022-11-16T09:38:30.423Z,219.38
2022-11-16T09:39:30.563Z,225.00
2022-11-16T09:40:19.701Z,225.00
2022-11-16T09:41:19.024Z,219.38
2022-11-16T09:42:19.009Z,219.38
2022-11-16T09:43:18.872Z,225.00
2022-11-16T09:44:19.420Z,225.00
2022-11-16T09:45:19.634Z,219.38
2022-11-16T09:46:19.031Z,208.12
2022-11-16T09:47:19.081Z,202.50
2022-11-16T09:48:18.880Z,196.88
2022-11-16T09:49:19.282Z,196.88
2022-11-16T09:50:18.843Z,191.25
2022-11-16T09:51:19.309Z,191.25
2022-11-16T09:52:18.771Z,191.25
2022-11-16T09:53:18.870Z,191.25
2022-11-16T09:54:18.869Z,196.88
2022-11-16T09:55:18.928Z,196.88
2022-11-16T09:56:22.053Z,202.50
2022-11-16T09:57:18.889Z,219.38
2022-11-16T09:58:18.748Z,219.38
2022-11-16T09:59:19.117Z,230.62
2022-11-16T10:00:19.169Z,236.25
2022-11-16T10:01:18.746Z,230.62
2022-11-16T10:02:19.346Z,225.00
2022-11-16T10:03:19.338Z,225.00
2022-11-16T10:04:18.728Z,225.00
2022-11-16T10:05:19.149Z,225.00
2022-11-16T10:06:18.997Z,230.62
2022-11-16T10:07:19.618Z,219.38
2022-11-16T10:08:19.089Z,219.38
2022-11-16T10:09:18.706Z,247.50
2022-11-16T10:10:19.594Z,275.62
2022-11-16T10:11:18.647Z,298.12
2022-11-16T10:12:18.629Z,326.25
2022-11-16T10:13:18.662Z,337.50
2022-11-16T10:14:18.637Z,331.88
2022-11-16T10:15:18.616Z,303.75
2022-11-16T10:16:18.614Z,298.12
2022-11-16T10:17:18.640Z,286.88
2022-11-16T10:18:18.618Z,275.62
2022-11-16T10:19:18.633Z,258.75
2022-11-16T10:20:18.636Z,253.12
2022-11-16T10:21:18.646Z,241.88
2022-11-16T10:22:18.647Z,230.62
2022-11-16T10:23:18.656Z,219.38
2022-11-16T10:24:18.577Z,247.50
2022-11-16T10:25:18.559Z,309.38
2022-11-16T10:26:18.534Z,326.25
2022-11-16T10:27:21.964Z,292.50
2022-11-16T10:28:18.546Z,326.25
2022-11-16T10:29:18.824Z,376.88
2022-11-16T10:30:18.704Z,371.25
2022-11-16T10:31:18.495Z,320.62
2022-11-16T10:32:18.505Z,320.62
2022-11-16T10:33:18.698Z,365.62
2022-11-16T10:34:18.725Z,399.38
2022-11-16T10:35:18.724Z,382.50
2022-11-16T10:36:18.993Z,421.88
2022-11-16T10:37:18.803Z,399.38
2022-11-16T10:38:18.623Z,348.75
2022-11-16T10:39:18.602Z,320.62
2022-11-16T10:40:18.826Z,320.62
2022-11-16T10:41:18.622Z,281.25
2022-11-16T10:42:18.841Z,253.12
2022-11-16T10:43:18.843Z,253.12
2022-11-16T10:44:18.853Z,230.62
2022-11-16T10:45:18.407Z,225.00
2022-11-16T10:46:18.871Z,236.25
2022-11-16T10:47:18.875Z,258.75
2022-11-16T10:48:19.023Z,247.50
2022-11-16T10:49:18.630Z,241.88
2022-11-16T10:50:18.704Z,241.88
2022-11-16T10:51:18.595Z,247.50
2022-11-16T10:52:19.057Z,303.75
2022-11-16T10:53:19.057Z,315.00
2022-11-16T10:54:19.062Z,275.62
2022-11-16T10:55:18.720Z,219.38
2022-11-16T10:56:18.321Z,208.12
2022-11-16T10:57:19.080Z,202.50
2022-11-16T10:58:18.792Z,208.12
2022-11-16T10:59:18.458Z,208.12
2022-11-16T11:00:22.232Z,202.50
2022-11-16T11:01:18.323Z,202.50
2022-11-16T11:02:18.490Z,202.50
2022-11-16T11:03:18.300Z,202.50
2022-11-16T11:04:18.319Z,208.12
2022-11-16T11:05:18.342Z,225.00
2022-11-16T11:06:19.759Z,247.50
2022-11-16T11:07:18.376Z,225.00
2022-11-16T11:08:18.342Z,219.38
2022-11-16T11:09:18.677Z,213.75
2022-11-16T11:10:18.268Z,180.00
2022-11-16T11:11:18.368Z,180.00
2022-11-16T11:12:18.359Z,180.00
2022-11-16T11:13:18.359Z,185.62
2022-11-16T11:14:18.369Z,196.88
2022-11-16T11:15:24.275Z,180.00
2022-11-16T11:16:18.308Z,174.38
2022-11-16T11:17:18.389Z,168.75
2022-11-16T11:18:18.188Z,168.75
2022-11-16T11:19:18.549Z,168.75
2022-11-16T11:20:18.488Z,174.38
2022-11-16T11:21:18.429Z,174.38
2022-11-16T11:22:18.343Z,180.00
2022-11-16T11:23:18.435Z,196.88
2022-11-16T11:24:43.510Z,202.50
2022-11-16T11:25:18.121Z,213.75
2022-11-16T11:26:18.116Z,230.62
2022-11-16T11:27:18.326Z,236.25
2022-11-16T11:28:18.536Z,241.88
2022-11-16T11:29:18.587Z,236.25
2022-11-16T11:30:18.087Z,236.25
2022-11-16T11:31:18.165Z,236.25
2022-11-16T11:32:23.789Z,241.88
2022-11-16T11:33:18.346Z,241.88
2022-11-16T11:34:18.577Z,241.88
2022-11-16T11:35:18.605Z,258.75
2022-11-16T11:36:18.075Z,264.38
2022-11-16T11:37:18.726Z,241.88
2022-11-16T11:38:18.745Z,230.62
2022-11-16T11:39:18.094Z,219.38
2022-11-16T11:40:18.033Z,208.12
2022-11-16T11:41:18.134Z,208.12
2022-11-16T11:42:18.146Z,202.50
2022-11-16T11:43:19.013Z,196.88
2022-11-16T11:44:18.234Z,213.75
2022-11-16T11:45:18.407Z,225.00
2022-11-16T11:46:18.384Z,236.25
2022-11-16T11:47:55.538Z,185.62
2022-11-16T11:48:18.005Z,191.25
2022-11-16T11:49:18.084Z,191.25
2022-11-16T11:50:18.193Z,191.25
2022-11-16T11:51:18.020Z,191.25
2022-11-16T11:52:18.016Z,191.25
2022-11-16T11:53:18.213Z,196.88
2022-11-16T11:54:18.015Z,196.88
2022-11-16T11:55:18.021Z,202.50
2022-11-16T11:56:18.543Z,202.50
2022-11-16T11:57:17.933Z,196.88
2022-11-16T11:58:17.942Z,202.50
2022-11-16T11:59:17.892Z,196.88
2022-11-16T12:00:17.933Z,196.88
2022-11-16T12:01:23.768Z,196.88
2022-11-16T12:02:17.872Z,196.88
2022-11-16T12:03:17.959Z,202.50
2022-11-16T12:04:17.870Z,202.50
2022-11-16T12:05:17.885Z,202.50
2022-11-16T12:06:17.921Z,208.12
2022-11-16T12:07:17.922Z,213.75
2022-11-16T12:08:17.861Z,219.38
2022-11-16T12:09:17.901Z,230.62
2022-11-16T12:10:17.912Z,230.62
2022-11-16T12:11:17.919Z,230.62
2022-11-16T12:12:17.820Z,236.25
2022-11-16T12:13:17.833Z,236.25
2022-11-16T12:14:17.830Z,236.25
2022-11-16T12:15:18.042Z,241.88
2022-11-16T12:16:17.848Z,247.50
2022-11-16T12:17:17.857Z,253.12
2022-11-16T12:18:17.971Z,258.75
2022-11-16T12:19:17.765Z,258.75
2022-11-16T12:20:17.979Z,264.38
2022-11-16T12:21:17.789Z,264.38
2022-11-16T12:22:17.875Z,270.00
2022-11-16T12:23:17.719Z,270.00
2022-11-16T12:24:17.717Z,270.00
2022-11-16T12:25:18.107Z,270.00
2022-11-16T12:26:17.708Z,275.62
2022-11-16T12:27:17.697Z,281.25
2022-11-16T12:28:17.696Z,281.25
2022-11-16T12:29:17.727Z,281.25
2022-11-16T12:30:17.736Z,281.25
2022-11-16T12:31:17.736Z,286.88
2022-11-16T12:32:17.670Z,286.88
2022-11-16T12:33:17.646Z,286.88
2022-11-16T12:34:17.677Z,286.88
2022-11-16T12:35:17.691Z,292.50
2022-11-16T12:36:17.671Z,292.50
2022-11-16T12:37:17.716Z,292.50
2022-11-16T12:38:21.768Z,292.50
2022-11-16T12:39:17.776Z,292.50
2022-11-16T12:40:17.755Z,292.50
2022-11-16T12:41:17.765Z,298.12
2022-11-16T12:42:17.705Z,298.12
2022-11-16T12:43:17.795Z,303.75
2022-11-16T12:44:17.638Z,309.38
2022-11-16T12:45:17.839Z,315.00
2022-11-16T12:46:17.752Z,320.62
2022-11-16T12:47:17.846Z,326.25
2022-11-16T12:48:17.555Z,331.88
2022-11-16T12:49:17.864Z,331.88
2022-11-16T12:50:17.588Z,337.50
2022-11-16T12:51:17.582Z,337.50
2022-11-16T12:52:17.556Z,337.50
2022-11-16T12:53:17.574Z,337.50
2022-11-16T12:54:17.709Z,337.50
2022-11-16T12:55:26.713Z,337.50
2022-11-16T12:56:17.724Z,343.12
2022-11-16T12:57:17.511Z,343.12
2022-11-16T12:58:17.521Z,348.75
2022-11-16T12:59:17.723Z,348.75
2022-11-16T13:00:17.826Z,348.75
2022-11-16T13:01:18.008Z,354.38
2022-11-16T13:02:18.075Z,348.75